Time;durP1;ratioP1;P1;durP2;ratioP2;P2;SDS_P1;SDS_P2;PMS_P1;PMS_P2;Temp;Humidity;BMP_temperature;BMP_pressure;BME280_temperature;BME280_humidity;BME280_pressure;Samples;Min_cycle;Max_cycle;Signal;HPM_P1;HPM_P2
2021/01/30 00:00:31;;;;;;;9.65;8.52;;;25.20;45.50;;;;;;5053255;28;20029;-53
2021/01/30 00:02:58;;;;;;;9.73;8.80;;;25.20;45.50;;;;;;5053376;28;20017;-53
2021/01/30 00:05:25;;;;;;;9.55;8.65;;;25.20;45.50;;;;;;5053897;28;20082;-53
2021/01/30 00:07:52;;;;;;;9.05;8.02;;;25.20;45.50;;;;;;5053607;28;20025;-53
2021/01/30 00:10:19;;;;;;;9.18;8.27;;;25.10;45.50;;;;;;5035908;28;20462;-53
2021/01/30 00:12:45;;;;;;;9.05;8.15;;;25.20;45.50;;;;;;5053318;28;20071;-53
2021/01/30 00:15:14;;;;;;;8.73;7.82;;;25.20;45.50;;;;;;5053124;28;20025;-53
2021/01/30 00:17:40;;;;;;;7.87;7.17;;;25.20;45.50;;;;;;5037335;28;20467;-53
2021/01/30 00:20:08;;;;;;;7.75;6.95;;;25.10;45.40;;;;;;5053371;28;20031;-53
2021/01/30 00:22:34;;;;;;;8.07;7.28;;;25.10;45.40;;;;;;5053196;28;20040;-53
2021/01/30 00:25:01;;;;;;;7.15;6.45;;;25.10;45.40;;;;;;5053561;28;20039;-53
2021/01/30 00:27:27;;;;;;;6.95;6.35;;;25.20;45.40;;;;;;5053162;28;20053;-53
2021/01/30 00:29:53;;;;;;;7.63;6.85;;;25.10;45.30;;;;;;5053222;28;20049;-53
2021/01/30 00:32:20;;;;;;;7.13;6.43;;;25.10;45.30;;;;;;5053242;28;20106;-53
2021/01/30 00:34:48;;;;;;;6.13;5.43;;;25.10;45.30;;;;;;5052792;28;20459;-53
2021/01/30 00:37:21;;;;;;;5.97;5.35;;;25.10;45.30;;;;;;5053054;28;20032;-53
2021/01/30 00:39:48;;;;;;;6.25;5.65;;;25.10;45.30;;;;;;5053283;28;20103;-53
2021/01/30 00:42:16;;;;;;;7.32;5.22;;;25.10;45.30;;;;;;5053058;28;20040;-53
2021/01/30 00:44:42;;;;;;;5.47;5.00;;;25.00;45.20;;;;;;5052870;28;20043;-53
2021/01/30 00:47:09;;;;;;;5.85;5.25;;;25.10;45.20;;;;;;5052855;28;20414;-53
2021/01/30 00:49:36;;;;;;;5.72;4.72;;;25.00;45.10;;;;;;5051705;28;20024;-53
2021/01/30 00:52:03;;;;;;;5.07;4.60;;;25.00;45.20;;;;;;5050783;28;20556;-53
2021/01/30 00:54:29;;;;;;;6.97;5.00;;;25.00;45.10;;;;;;5051643;28;20099;-53
2021/01/30 00:56:56;;;;;;;5.00;4.57;;;25.00;45.20;;;;;;5047790;28;20029;-55
2021/01/30 00:59:26;;;;;;;4.68;4.18;;;25.00;45.20;;;;;;5032674;28;20474;-56
2021/01/30 01:01:53;;;;;;;4.50;4.10;;;25.00;45.10;;;;;;5050485;28;20129;-55
2021/01/30 01:04:26;;;;;;;4.47;4.03;;;25.00;45.10;;;;;;5052195;28;20052;-55
2021/01/30 01:06:52;;;;;;;5.03;4.53;;;25.00;45.10;;;;;;5052598;28;20094;-55
2021/01/30 01:09:20;;;;;;;4.30;3.90;;;25.00;45.10;;;;;;5053538;28;20029;-55
2021/01/30 01:11:48;;;;;;;4.78;4.30;;;25.00;45.10;;;;;;5053123;28;20041;-55
2021/01/30 01:14:16;;;;;;;4.93;4.32;;;25.00;45.10;;;;;;5053163;28;20398;-55
2021/01/30 01:16:44;;;;;;;3.70;3.40;;;24.90;45.10;;;;;;5053333;28;20100;-55
2021/01/30 01:19:10;;;;;;;3.97;3.58;;;25.00;45.00;;;;;;5053204;28;20041;-55
2021/01/30 01:21:36;;;;;;;4.00;3.63;;;24.90;44.90;;;;;;5052380;28;20478;-55
2021/01/30 01:24:02;;;;;;;3.78;3.00;;;24.90;45.00;;;;;;5053282;28;20029;-55
2021/01/30 01:26:29;;;;;;;4.03;3.63;;;25.00;45.00;;;;;;5053247;28;20036;-55
2021/01/30 01:28:55;;;;;;;3.75;3.40;;;24.90;44.90;;;;;;5053248;28;20044;-55
2021/01/30 01:31:21;;;;;;;4.55;3.88;;;24.90;44.90;;;;;;5052687;28;20017;-55
2021/01/30 01:33:47;;;;;;;5.25;3.72;;;24.90;44.90;;;;;;5046325;28;20032;-55
2021/01/30 01:36:17;;;;;;;3.55;3.25;;;24.90;44.90;;;;;;5048018;28;20055;-55
2021/01/30 01:38:44;;;;;;;3.33;3.03;;;24.90;44.90;;;;;;5052877;28;20033;-55
2021/01/30 01:41:11;;;;;;;3.95;3.13;;;24.90;44.80;;;;;;5053180;28;20033;-55
2021/01/30 01:43:37;;;;;;;3.60;3.30;;;24.90;44.90;;;;;;5052629;28;20094;-55
2021/01/30 01:46:32;;;;;;;3.60;2.97;;;24.90;44.80;;;;;;5053046;28;20025;-55
2021/01/30 01:49:23;;;;;;;3.92;3.40;;;24.90;44.90;;;;;;5052705;28;20037;-55
2021/01/30 01:52:09;;;;;;;5.85;3.35;;;24.90;44.80;;;;;;5051564;28;20045;-55
2021/01/30 01:54:39;;;;;;;3.78;3.00;;;24.90;44.90;;;;;;5052842;28;20040;-55
2021/01/30 01:57:12;;;;;;;4.07;3.27;;;24.90;44.80;;;;;;5052768;28;20478;-55
2021/01/30 01:59:47;;;;;;;3.40;3.10;;;24.90;44.90;;;;;;5051888;28;20274;-55
2021/01/30 02:02:13;;;;;;;4.38;3.00;;;24.80;44.80;;;;;;5050183;28;20054;-56
2021/01/30 02:04:43;;;;;;;3.67;3.28;;;24.80;44.80;;;;;;5051620;28;20067;-55
2021/01/30 02:07:09;;;;;;;3.58;3.20;;;24.80;44.90;;;;;;5052731;28;20042;-56
2021/01/30 02:09:35;;;;;;;3.83;3.40;;;24.80;44.90;;;;;;5052789;28;20167;-55
2021/01/30 02:12:11;;;;;;;3.70;3.13;;;24.80;44.90;;;;;;5051406;28;20037;-55
2021/01/30 02:14:43;;;;;;;3.72;3.42;;;24.70;44.80;;;;;;5051274;28;20025;-55
2021/01/30 02:17:41;;;;;;;3.20;2.90;;;24.80;44.90;;;;;;5052762;28;20025;-55
2021/01/30 02:20:13;;;;;;;2.90;2.67;;;24.80;44.90;;;;;;5008306;28;20042;-55
2021/01/30 02:22:59;;;;;;;3.55;3.22;;;24.80;44.90;;;;;;4993288;28;20038;-55
2021/01/30 02:26:17;;;;;;;3.90;3.30;;;24.80;44.80;;;;;;4995696;28;20511;-55
2021/01/30 02:29:04;;;;;;;5.45;3.90;;;24.80;44.80;;;;;;4933547;28;20145;-55
2021/01/30 02:31:42;;;;;;;3.95;3.20;;;24.70;44.70;;;;;;4941912;29;20031;-55
2021/01/30 02:34:55;;;;;;;4.43;3.35;;;24.70;44.60;;;;;;4947212;29;20035;-55
2021/01/30 02:37:29;;;;;;;4.60;3.05;;;24.70;44.70;;;;;;4948876;29;20390;-55
2021/01/30 02:40:26;;;;;;;3.97;3.20;;;24.70;44.60;;;;;;4933736;29;20118;-55
2021/01/30 02:43:10;;;;;;;3.65;2.95;;;24.70;44.70;;;;;;4914332;28;20083;-55
2021/01/30 02:46:01;;;;;;;4.63;3.65;;;24.70;44.60;;;;;;4914086;29;20036;-55
2021/01/30 02:48:41;;;;;;;3.05;2.75;;;24.70;44.70;;;;;;4911666;29;20566;-55
2021/01/30 02:51:12;;;;;;;3.15;2.85;;;24.70;44.60;;;;;;4914472;29;20078;-56
2021/01/30 02:53:45;;;;;;;3.80;3.40;;;24.70;44.60;;;;;;4913561;29;20503;-54
2021/01/30 02:56:13;;;;;;;4.57;3.47;;;24.70;44.60;;;;;;4897651;29;20088;-53
2021/01/30 02:58:47;;;;;;;3.75;3.38;;;24.70;44.70;;;;;;4918520;29;20122;-54
2021/01/30 03:01:13;;;;;;;3.42;3.13;;;24.70;44.60;;;;;;4955937;28;20034;-54
2021/01/30 03:03:40;;;;;;;4.82;3.47;;;24.70;44.70;;;;;;4970612;28;20027;-54
2021/01/30 03:06:15;;;;;;;4.13;3.10;;;24.70;44.70;;;;;;4970378;28;20042;-54
2021/01/30 03:08:48;;;;;;;3.55;2.85;;;24.70;44.70;;;;;;4970652;28;20521;-54
2021/01/30 03:11:24;;;;;;;3.30;3.00;;;24.60;44.60;;;;;;4970171;28;20063;-54
2021/01/30 03:14:03;;;;;;;4.13;3.15;;;24.60;44.60;;;;;;4971561;28;20487;-54
2021/01/30 03:16:36;;;;;;;4.35;3.17;;;24.60;44.60;;;;;;4973865;28;20462;-54
2021/01/30 03:19:22;;;;;;;3.85;3.10;;;24.60;44.60;;;;;;5008583;28;20045;-54
2021/01/30 03:21:54;;;;;;;4.95;3.55;;;24.60;44.60;;;;;;5038228;28;20029;-53
2021/01/30 03:24:20;;;;;;;4.07;3.22;;;24.70;44.70;;;;;;5036027;28;20121;-54
2021/01/30 03:26:46;;;;;;;3.40;3.10;;;24.60;44.70;;;;;;5040030;28;20079;-53
2021/01/30 03:29:16;;;;;;;5.68;3.55;;;24.60;44.60;;;;;;5053821;28;20033;-54
2021/01/30 03:31:42;;;;;;;3.90;3.15;;;24.60;44.70;;;;;;5041160;28;20028;-55
2021/01/30 03:34:10;;;;;;;4.32;3.75;;;24.60;44.70;;;;;;5051172;28;20033;-54
2021/01/30 03:36:37;;;;;;;4.47;3.50;;;24.60;44.70;;;;;;5054078;28;20456;-54
2021/01/30 03:39:17;;;;;;;4.45;3.63;;;24.60;44.70;;;;;;5053982;28;20066;-54
2021/01/30 03:41:44;;;;;;;4.20;3.42;;;24.60;44.70;;;;;;5051769;28;20102;-54
2021/01/30 03:44:14;;;;;;;4.38;3.35;;;24.60;44.70;;;;;;5042450;28;20064;-52
2021/01/30 03:46:41;;;;;;;3.85;3.10;;;24.60;44.70;;;;;;5034358;28;20033;-54
2021/01/30 03:49:07;;;;;;;3.45;2.85;;;24.60;44.70;;;;;;5051695;28;20075;-53
2021/01/30 03:51:34;;;;;;;4.95;3.40;;;24.60;44.80;;;;;;5059773;28;20119;-54
2021/01/30 03:54:00;;;;;;;3.40;3.10;;;24.50;44.70;;;;;;5073486;28;20387;-54
2021/01/30 03:56:26;;;;;;;4.45;3.58;;;24.50;44.70;;;;;;5056240;28;20028;-54
2021/01/30 03:58:51;;;;;;;4.97;3.67;;;24.50;44.70;;;;;;5074301;28;20382;-54
2021/01/30 04:01:17;;;;;;;4.70;3.20;;;24.60;44.80;;;;;;5073985;28;20033;-54
2021/01/30 04:03:47;;;;;;;5.32;3.50;;;24.60;44.80;;;;;;5073545;28;20407;-53
2021/01/30 04:06:14;;;;;;;4.78;3.58;;;24.60;44.80;;;;;;5073604;28;20508;-53
2021/01/30 04:08:40;;;;;;;4.10;3.50;;;24.60;44.90;;;;;;5052787;28;20040;-54
2021/01/30 04:11:07;;;;;;;5.55;3.70;;;24.60;44.80;;;;;;5056621;28;20040;-54
2021/01/30 04:13:33;;;;;;;4.50;3.50;;;24.50;44.80;;;;;;5073284;28;20028;-54
2021/01/30 04:15:59;;;;;;;6.80;3.40;;;24.50;44.80;;;;;;5073591;28;20028;-54
2021/01/30 04:18:25;;;;;;;3.90;3.50;;;24.50;44.80;;;;;;5073854;28;20021;-53
2021/01/30 04:20:51;;;;;;;4.50;3.78;;;24.50;44.80;;;;;;5052061;28;20486;-54
2021/01/30 04:23:17;;;;;;;4.13;3.58;;;24.50;44.80;;;;;;5069125;28;20107;-54
2021/01/30 04:25:43;;;;;;;5.47;3.10;;;24.50;44.80;;;;;;5072394;28;20035;-54
2021/01/30 04:28:09;;;;;;;4.93;4.05;;;24.50;44.80;;;;;;5073155;28;20033;-53
2021/01/30 04:30:35;;;;;;;4.43;3.50;;;24.50;44.80;;;;;;5072944;28;20039;-54
2021/01/30 04:33:01;;;;;;;4.30;3.65;;;24.50;44.90;;;;;;5051434;28;20029;-53
2021/01/30 04:35:32;;;;;;;5.93;3.80;;;24.50;44.80;;;;;;5072312;28;20060;-54
2021/01/30 04:37:58;;;;;;;4.43;3.53;;;24.50;44.80;;;;;;5072828;28;20386;-54
2021/01/30 04:40:24;;;;;;;4.10;3.53;;;24.50;44.80;;;;;;5038927;28;20028;-54
2021/01/30 04:42:53;;;;;;;4.50;3.90;;;24.50;44.80;;;;;;5073078;28;20047;-53
2021/01/30 04:46:04;;;;;;;4.60;4.00;;;24.50;44.80;;;;;;5072251;28;20028;-53
2021/01/30 04:49:00;;;;;;;4.22;3.80;;;24.50;44.90;;;;;;5029571;28;20044;-54
2021/01/30 04:51:48;;;;;;;5.28;4.10;;;24.50;44.80;;;;;;5052996;28;20045;-55
2021/01/30 04:54:40;;;;;;;5.25;3.55;;;24.50;44.80;;;;;;5069000;28;20141;-55
2021/01/30 04:57:16;;;;;;;4.45;3.90;;;24.40;44.80;;;;;;5039243;28;20036;-53
2021/01/30 04:59:42;;;;;;;4.63;4.00;;;24.50;44.80;;;;;;5072456;28;20442;-53
2021/01/30 05:02:17;;;;;;;5.60;4.40;;;24.40;44.80;;;;;;5053885;28;20052;-53
2021/01/30 05:04:46;;;;;;;5.50;4.20;;;24.40;44.80;;;;;;5072483;28;20429;-53
2021/01/30 05:07:31;;;;;;;5.03;4.10;;;24.40;44.80;;;;;;5072044;28;20031;-59
2021/01/30 05:10:20;;;;;;;4.82;4.25;;;24.40;44.80;;;;;;5072771;28;20038;-53
2021/01/30 05:12:59;;;;;;;5.35;4.60;;;24.40;44.80;;;;;;5072645;28;20028;-54
2021/01/30 05:15:48;;;;;;;4.80;4.07;;;24.40;44.70;;;;;;5072101;28;20025;-54
2021/01/30 05:18:21;;;;;;;5.13;3.90;;;24.30;44.70;;;;;;5034026;28;20043;-54
2021/01/30 05:21:02;;;;;;;3.92;3.50;;;24.30;44.70;;;;;;5072264;28;20024;-54
2021/01/30 05:23:31;;;;;;;5.05;3.55;;;24.30;44.70;;;;;;5072152;28;20033;-53
2021/01/30 05:26:10;;;;;;;4.63;3.85;;;24.30;44.70;;;;;;5072650;28;20338;-54
2021/01/30 05:29:08;;;;;;;5.40;3.88;;;24.30;44.60;;;;;;5071866;28;20028;-54
2021/01/30 05:31:58;;;;;;;4.35;3.67;;;24.30;44.70;;;;;;5071723;28;20136;-54
2021/01/30 05:34:33;;;;;;;4.25;3.70;;;24.30;44.70;;;;;;5067965;28;20051;-54
2021/01/30 05:37:06;;;;;;;4.40;3.83;;;24.30;44.70;;;;;;5062211;28;20048;-54
2021/01/30 05:39:58;;;;;;;4.70;3.65;;;24.30;44.60;;;;;;5071860;28;20033;-58
2021/01/30 05:42:40;;;;;;;4.88;4.07;;;24.30;44.70;;;;;;5071690;28;20165;-53
2021/01/30 05:45:25;;;;;;;4.28;3.75;;;24.30;44.60;;;;;;5071743;28;20043;-53
2021/01/30 05:47:52;;;;;;;5.47;3.53;;;24.30;44.70;;;;;;5071735;28;20034;-54
2021/01/30 05:50:38;;;;;;;4.88;3.70;;;24.30;44.50;;;;;;5071523;28;20072;-54
2021/01/30 05:53:05;;;;;;;3.67;3.30;;;24.20;44.60;;;;;;5070579;28;20041;-57
2021/01/30 05:55:36;;;;;;;4.78;3.40;;;24.30;44.60;;;;;;5070698;28;20120;-54
2021/01/30 05:58:12;;;;;;;4.10;3.70;;;24.20;44.30;;;;;;5071448;28;20122;-54
2021/01/30 06:00:39;;;;;;;5.78;3.75;;;24.20;44.40;;;;;;5071455;28;20450;-54
2021/01/30 06:03:21;;;;;;;3.70;3.35;;;24.20;44.40;;;;;;5071165;28;20036;-54
2021/01/30 06:05:53;;;;;;;3.30;3.00;;;24.20;44.40;;;;;;5071869;28;20107;-54
2021/01/30 06:08:21;;;;;;;3.97;3.58;;;24.20;44.40;;;;;;5071610;28;20037;-54
2021/01/30 06:10:54;;;;;;;3.55;3.20;;;24.20;44.40;;;;;;5071738;28;20071;-54
2021/01/30 06:13:24;;;;;;;3.42;2.92;;;24.20;44.40;;;;;;5071393;28;20032;-54
2021/01/30 06:15:54;;;;;;;4.38;3.53;;;24.20;44.30;;;;;;5071022;28;20028;-54
2021/01/30 06:18:39;;;;;;;6.50;3.03;;;24.20;44.20;;;;;;5071978;28;20039;-58
2021/01/30 06:21:17;;;;;;;3.70;3.00;;;24.20;44.30;;;;;;5049993;28;20047;-54
2021/01/30 06:24:24;;;;;;;3.50;2.58;;;24.20;44.20;;;;;;5051871;28;20043;-54
2021/01/30 06:26:51;;;;;;;3.65;3.10;;;24.20;44.20;;;;;;5041048;28;20068;-54
2021/01/30 06:29:33;;;;;;;3.95;2.95;;;24.10;44.10;;;;;;5064391;28;20040;-54
2021/01/30 06:32:45;;;;;;;3.75;2.75;;;24.10;44.10;;;;;;5040026;28;20035;-54
2021/01/30 06:35:26;;;;;;;4.15;2.88;;;24.20;44.30;;;;;;5071522;28;20032;-54
2021/01/30 06:37:55;;;;;;;2.80;2.35;;;24.20;44.20;;;;;;5071518;28;20035;-54
2021/01/30 06:40:23;;;;;;;2.83;2.47;;;24.20;44.20;;;;;;5071252;28;20021;-54
2021/01/30 06:42:53;;;;;;;3.80;3.20;;;24.20;44.20;;;;;;5070597;28;20437;-54
2021/01/30 06:45:31;;;;;;;5.22;3.30;;;24.20;44.20;;;;;;5054950;28;20091;-54
2021/01/30 06:47:57;;;;;;;4.32;3.45;;;24.10;44.10;;;;;;5064558;28;20032;-54
2021/01/30 06:50:35;;;;;;;4.50;4.03;;;24.20;44.30;;;;;;5074733;28;20437;-54
2021/01/30 06:53:25;;;;;;;5.32;4.32;;;24.20;44.30;;;;;;5060893;28;20064;-54
2021/01/30 06:55:55;;;;;;;6.43;4.68;;;24.10;44.20;;;;;;5054214;28;20048;-54
2021/01/30 06:58:28;;;;;;;5.43;4.47;;;24.20;44.20;;;;;;5036609;28;20064;-54
2021/01/30 07:01:13;;;;;;;5.88;5.28;;;24.10;44.20;;;;;;5050957;28;20386;-55
2021/01/30 07:04:00;;;;;;;6.40;5.75;;;24.10;44.30;;;;;;5038883;28;20181;-54
2021/01/30 07:06:32;;;;;;;6.90;5.30;;;24.10;44.20;;;;;;5052439;28;20107;-53
2021/01/30 07:09:12;;;;;;;6.90;6.20;;;24.10;44.20;;;;;;5053822;28;20131;-53
2021/01/30 07:11:48;;;;;;;9.25;8.27;;;24.00;43.90;;;;;;5054399;28;20029;-56
2021/01/30 07:14:30;;;;;;;12.55;11.25;;;24.10;44.10;;;;;;5054496;28;20063;-56
2021/01/30 07:17:29;;;;;;;12.90;11.60;;;24.10;44.20;;;;;;5053394;28;20021;-55
2021/01/30 07:20:21;;;;;;;12.90;9.75;;;24.10;44.30;;;;;;5053334;28;20028;-55
2021/01/30 07:23:33;;;;;;;9.57;8.57;;;24.10;44.20;;;;;;5054438;28;20061;-56
2021/01/30 07:26:05;;;;;;;8.77;7.97;;;24.10;44.20;;;;;;5046156;28;20041;-57
2021/01/30 07:28:39;;;;;;;9.55;8.40;;;24.10;44.10;;;;;;5053336;28;20482;-57
2021/01/30 07:31:36;;;;;;;7.82;7.03;;;24.10;44.10;;;;;;5053219;28;20075;-57
2021/01/30 07:34:31;;;;;;;7.85;7.05;;;24.00;44.10;;;;;;5053268;28;20514;-57
2021/01/30 07:37:27;;;;;;;6.97;6.07;;;24.00;44.70;;;;;;5052040;28;20068;-56
2021/01/30 07:40:00;;;;;;;6.38;5.70;;;24.10;44.10;;;;;;5034566;28;20155;-60
2021/01/30 07:42:44;;;;;;;23.27;20.85;;;24.10;44.10;;;;;;5037045;28;20421;-55
2021/01/30 07:45:20;;;;;;;53.17;47.33;;;24.10;43.60;;;;;;5009574;28;20152;-55
2021/01/30 07:48:10;;;;;;;45.92;41.10;;;24.00;43.70;;;;;;5033894;28;20467;-56
2021/01/30 07:50:40;;;;;;;21.83;19.13;;;24.10;43.50;;;;;;5045385;28;20120;-56
2021/01/30 07:53:27;;;;;;;12.43;9.97;;;24.00;43.30;;;;;;5071978;28;20056;-56
2021/01/30 07:56:27;;;;;;;7.07;6.38;;;24.00;43.10;;;;;;5070970;28;20394;-56
2021/01/30 07:59:14;;;;;;;6.68;5.22;;;24.00;43.10;;;;;;5072147;28;20471;-56
2021/01/30 08:02:08;;;;;;;2.50;2.30;;;24.00;43.00;;;;;;5054545;28;20033;-56
2021/01/30 08:05:04;;;;;;;3.38;1.75;;;24.00;42.90;;;;;;5053727;28;20039;-55
2021/01/30 08:07:49;;;;;;;108.38;90.68;;;23.90;42.80;;;;;;5058096;28;20103;-54
2021/01/30 08:10:21;;;;;;;47.28;42.25;;;23.90;42.90;;;;;;5072744;28;20488;-54
2021/01/30 08:12:54;;;;;;;26.85;22.48;;;23.80;42.90;;;;;;5055616;28;20055;-54
2021/01/30 08:15:36;;;;;;;16.30;14.70;;;23.80;43.10;;;;;;5072729;28;20452;-55
2021/01/30 08:18:07;;;;;;;12.07;10.38;;;23.80;43.30;;;;;;5073316;28;20532;-54
2021/01/30 08:20:44;;;;;;;11.23;7.15;;;23.80;43.40;;;;;;5071432;28;20024;-54
2021/01/30 08:23:10;;;;;;;3.42;3.10;;;23.80;43.30;;;;;;5063365;28;20116;-54
2021/01/30 08:26:10;;;;;;;6.38;2.55;;;23.80;43.40;;;;;;5053721;28;20159;-54
2021/01/30 08:28:43;;;;;;;2.37;1.90;;;23.80;43.40;;;;;;5053278;28;20037;-55
2021/01/30 08:31:40;;;;;;;26.70;21.95;;;23.80;43.40;;;;;;5053899;28;20289;-53
2021/01/30 08:34:18;;;;;;;17.70;15.80;;;23.80;43.70;;;;;;5051561;28;20368;-58
2021/01/30 08:36:53;;;;;;;7.55;5.57;;;23.80;43.50;;;;;;5054468;28;20441;-58
2021/01/30 08:39:19;;;;;;;4.72;3.08;;;23.90;43.40;;;;;;5069800;28;20020;-52
2021/01/30 08:41:51;;;;;;;3.38;1.05;;;23.90;43.40;;;;;;5054940;28;20116;-53
2021/01/30 08:44:30;;;;;;;0.50;0.45;;;23.90;43.40;;;;;;5073706;28;20041;-53
2021/01/30 08:47:26;;;;;;;1.70;1.10;;;23.90;43.30;;;;;;5067792;28;20482;-53
2021/01/30 08:50:04;;;;;;;1.20;0.85;;;23.80;43.30;;;;;;5071535;28;20032;-53
2021/01/30 08:52:49;;;;;;;1.55;0.60;;;23.90;43.40;;;;;;5063560;28;20037;-53
2021/01/30 08:55:45;;;;;;;0.65;0.50;;;23.80;43.40;;;;;;5056439;28;20032;-53
2021/01/30 08:58:35;;;;;;;1.67;0.50;;;23.80;43.40;;;;;;5053910;28;20048;-53
2021/01/30 09:01:24;;;;;;;0.38;0.38;;;23.80;43.50;;;;;;5067381;28;20474;-53
2021/01/30 09:03:56;;;;;;;2.38;0.90;;;23.90;43.60;;;;;;5061765;28;20042;-53
2021/01/30 09:06:40;;;;;;;1.05;0.95;;;23.90;43.60;;;;;;5071844;28;20448;-53
2021/01/30 09:09:27;;;;;;;1.50;0.68;;;23.90;43.70;;;;;;5070322;28;20131;-53
2021/01/30 09:11:55;;;;;;;0.45;0.45;;;23.90;43.90;;;;;;5070748;28;20055;-53
2021/01/30 09:14:21;;;;;;;1.00;0.90;;;23.90;43.80;;;;;;5071897;28;20085;-54
2021/01/30 09:16:56;;;;;;;1.67;0.88;;;23.90;43.80;;;;;;5072134;28;20036;-53
2021/01/30 09:19:46;;;;;;;1.75;1.17;;;23.90;43.90;;;;;;5071366;28;20025;-53
2021/01/30 09:22:26;;;;;;;0.80;0.60;;;23.90;44.10;;;;;;5070056;28;20038;-53
2021/01/30 09:25:02;;;;;;;1.10;0.60;;;23.90;44.00;;;;;;5071045;28;20043;-54
2021/01/30 09:27:31;;;;;;;1.95;0.60;;;23.90;44.10;;;;;;5071033;28;20482;-53
2021/01/30 09:30:21;;;;;;;1.33;0.50;;;23.90;44.10;;;;;;5053662;28;20078;-54
2021/01/30 09:32:49;;;;;;;0.82;0.52;;;23.90;44.20;;;;;;5071231;28;20039;-54
2021/01/30 09:35:22;;;;;;;1.77;0.50;;;23.90;44.30;;;;;;5017479;28;20029;-54
2021/01/30 09:37:49;;;;;;;3.50;1.00;;;24.00;44.40;;;;;;5053069;28;20107;-54
2021/01/30 09:40:30;;;;;;;1.20;0.85;;;24.00;44.40;;;;;;5072293;28;20029;-55
2021/01/30 09:43:05;;;;;;;1.67;0.68;;;24.00;44.40;;;;;;5072032;28;20028;-54
2021/01/30 09:45:32;;;;;;;3.22;2.35;;;24.00;44.50;;;;;;5070292;28;20036;-59
2021/01/30 09:48:02;;;;;;;4.45;3.67;;;24.10;44.50;;;;;;5054804;28;20375;-59
2021/01/30 09:50:34;;;;;;;1.58;1.48;;;24.10;44.40;;;;;;5072714;28;20462;-59
2021/01/30 09:53:04;;;;;;;2.78;2.17;;;24.10;44.50;;;;;;5040260;28;20478;-59
2021/01/30 09:55:30;;;;;;;0.90;0.73;;;24.20;44.50;;;;;;5034331;28;20470;-59
2021/01/30 09:58:27;;;;;;;2.40;1.25;;;24.20;44.60;;;;;;5051581;28;20394;-59
2021/01/30 10:00:54;;;;;;;1.20;0.80;;;24.30;44.60;;;;;;5036240;28;20128;-60
2021/01/30 10:03:23;;;;;;;0.77;0.55;;;24.30;44.60;;;;;;5051888;28;20033;-59
2021/01/30 10:05:53;;;;;;;0.57;0.50;;;24.40;44.60;;;;;;5017637;28;20516;-59
2021/01/30 10:08:26;;;;;;;3.22;0.85;;;24.50;44.60;;;;;;5051599;28;20033;-57
2021/01/30 10:11:22;;;;;;;1.52;0.65;;;24.50;44.50;;;;;;5016941;28;20555;-56
2021/01/30 10:13:58;;;;;;;1.35;0.47;;;24.50;44.30;;;;;;4970633;28;20536;-57
2021/01/30 10:16:27;;;;;;;5.75;5.18;;;24.60;44.20;;;;;;4971296;28;20030;-56
2021/01/30 10:19:19;;;;;;;3.72;2.90;;;24.70;44.30;;;;;;4971489;28;20137;-57
2021/01/30 10:21:45;;;;;;;5.35;4.40;;;24.70;44.30;;;;;;4963803;28;20042;-57
2021/01/30 10:24:11;;;;;;;2.35;1.25;;;24.80;44.30;;;;;;4956817;28;20154;-57
2021/01/30 10:26:37;;;;;;;7.60;6.75;;;24.80;44.30;;;;;;4958606;28;20058;-59
2021/01/30 10:29:13;;;;;;;38.60;34.63;;;24.90;44.30;;;;;;4974989;28;20031;-58
2021/01/30 10:31:44;;;;;;;23.77;21.48;;;24.90;44.20;;;;;;4975135;28;20043;-58
2021/01/30 10:34:17;;;;;;;18.25;16.50;;;24.90;44.20;;;;;;4975185;28;20030;-57
2021/01/30 10:36:55;;;;;;;15.32;13.88;;;25.00;44.20;;;;;;4975091;28;20047;-57
2021/01/30 10:39:23;;;;;;;12.70;11.50;;;25.10;44.10;;;;;;4974698;28;20042;-58
2021/01/30 10:41:50;;;;;;;9.80;8.80;;;25.10;44.10;;;;;;4974998;28;20074;-58
2021/01/30 10:44:30;;;;;;;8.05;7.25;;;25.20;44.10;;;;;;4968263;28;20035;-58
2021/01/30 10:47:00;;;;;;;6.63;6.03;;;25.30;44.00;;;;;;4971757;28;20437;-58
2021/01/30 10:49:33;;;;;;;6.95;5.80;;;25.40;44.00;;;;;;4983753;28;20071;-55
2021/01/30 10:52:09;;;;;;;6.05;5.45;;;25.40;43.80;;;;;;5072654;28;20453;-55
2021/01/30 10:54:36;;;;;;;4.65;4.25;;;25.50;43.70;;;;;;5075210;28;20032;-55
2021/01/30 10:57:17;;;;;;;5.53;4.03;;;25.60;43.70;;;;;;5057406;28;20024;-55
2021/01/30 11:00:01;;;;;;;4.05;3.65;;;25.60;43.50;;;;;;5074133;28;20036;-55
2021/01/30 11:02:44;;;;;;;3.88;2.67;;;25.70;43.50;;;;;;5068776;28;20497;-55
2021/01/30 11:05:19;;;;;;;10.00;9.05;;;25.80;43.40;;;;;;5062140;28;20033;-54
2021/01/30 11:08:03;;;;;;;9.55;8.65;;;25.90;43.30;;;;;;5075134;28;20036;-55
2021/01/30 11:10:28;;;;;;;14.52;10.05;;;25.90;43.30;;;;;;5074817;28;20539;-58
2021/01/30 11:13:14;;;;;;;9.35;8.55;;;25.90;43.20;;;;;;5053679;28;20028;-58
2021/01/30 11:15:44;;;;;;;8.15;7.45;;;26.00;43.20;;;;;;5053612;28;20032;-55
2021/01/30 11:18:26;;;;;;;8.13;7.32;;;26.00;43.20;;;;;;5073815;28;20082;-58
2021/01/30 11:20:53;;;;;;;67.38;60.47;;;26.10;43.10;;;;;;5074452;28;20111;-64
2021/01/30 11:23:42;;;;;;;29.95;27.00;;;26.20;43.10;;;;;;5075711;28;20032;-60
2021/01/30 11:26:21;;;;;;;18.13;15.02;;;26.20;43.40;;;;;;5057744;28;20047;-60
2021/01/30 11:28:47;;;;;;;5.78;4.53;;;26.40;43.50;;;;;;5057389;28;20043;-60
2021/01/30 11:31:15;;;;;;;7.95;6.70;;;26.60;43.30;;;;;;5074470;28;20535;-60
2021/01/30 11:33:52;;;;;;;8.55;7.60;;;27.00;42.90;;;;;;5071216;28;20021;-60
2021/01/30 11:36:20;;;;;;;7.78;6.82;;;27.30;42.70;;;;;;5070630;28;20023;-60
2021/01/30 11:38:59;;;;;;;7.47;5.10;;;27.70;42.20;;;;;;5074855;28;20095;-60
2021/01/30 11:41:25;;;;;;;4.55;3.80;;;28.10;41.30;;;;;;5064071;28;20036;-60
2021/01/30 11:43:51;;;;;;;40.38;36.30;;;28.60;40.90;;;;;;5075240;28;20029;-61
2021/01/30 11:46:17;;;;;;;56.50;51.00;;;29.00;40.40;;;;;;5074847;28;20020;-60
2021/01/30 11:48:43;;;;;;;47.47;42.67;;;29.50;40.00;;;;;;5047929;28;20033;-59
2021/01/30 11:51:20;;;;;;;41.28;37.10;;;29.90;39.50;;;;;;5070490;28;20120;-59
2021/01/30 11:53:46;;;;;;;28.52;25.80;;;30.40;38.50;;;;;;5055186;28;20105;-54
2021/01/30 11:56:12;;;;;;;18.35;16.63;;;30.80;38.30;;;;;;5066042;28;20108;-53
2021/01/30 11:58:38;;;;;;;14.85;13.45;;;31.10;37.50;;;;;;5073272;28;20028;-53
2021/01/30 12:01:04;;;;;;;17.25;14.90;;;31.30;37.00;;;;;;5073452;28;20031;-53
2021/01/30 12:03:30;;;;;;;20.42;14.77;;;31.50;36.60;;;;;;5074184;28;20039;-53
2021/01/30 12:05:59;;;;;;;27.40;16.15;;;31.50;36.20;;;;;;5053401;28;20043;-53
2021/01/30 12:08:28;;;;;;;25.45;14.73;;;31.50;36.00;;;;;;5056233;28;20035;-54
2021/01/30 12:10:54;;;;;;;18.30;10.30;;;31.50;36.40;;;;;;5071694;28;20025;-53
2021/01/30 12:13:21;;;;;;;14.27;8.63;;;31.60;36.20;;;;;;5073326;28;20051;-54
2021/01/30 12:15:47;;;;;;;19.42;10.65;;;31.60;36.20;;;;;;5056136;28;20029;-53
2021/01/30 12:18:15;;;;;;;13.05;8.38;;;31.60;36.20;;;;;;5052429;28;20024;-54
2021/01/30 12:20:42;;;;;;;15.77;10.65;;;31.50;36.10;;;;;;5064022;28;20366;-54
2021/01/30 12:23:10;;;;;;;14.57;8.90;;;31.40;36.30;;;;;;5054875;28;20336;-54
2021/01/30 12:25:36;;;;;;;12.82;7.03;;;31.40;36.50;;;;;;5073180;28;20104;-54
2021/01/30 12:28:04;;;;;;;9.80;5.68;;;31.20;36.60;;;;;;5071231;28;20039;-54
2021/01/30 12:30:34;;;;;;;15.23;7.38;;;31.20;36.80;;;;;;5045766;28;20115;-53
2021/01/30 12:33:00;;;;;;;13.43;7.30;;;31.10;36.70;;;;;;5066827;28;20066;-54
2021/01/30 12:35:28;;;;;;;14.25;6.03;;;31.10;37.20;;;;;;5072106;28;20021;-53
2021/01/30 12:37:55;;;;;;;13.23;6.47;;;31.10;37.20;;;;;;5073603;28;20086;-53
2021/01/30 12:40:25;;;;;;;12.85;5.35;;;31.10;37.40;;;;;;5073313;28;20358;-53
2021/01/30 12:42:51;;;;;;;7.97;4.70;;;31.10;37.30;;;;;;5056438;28;20103;-53
2021/01/30 12:45:17;;;;;;;7.50;5.10;;;31.20;37.60;;;;;;5072610;28;20116;-53
2021/01/30 12:47:44;;;;;;;7.60;4.22;;;31.40;37.50;;;;;;5072399;28;20032;-53
2021/01/30 12:50:15;;;;;;;7.90;3.95;;;31.50;37.20;;;;;;5071362;28;20055;-54
2021/01/30 12:52:41;;;;;;;7.82;3.28;;;31.70;36.50;;;;;;5051525;28;20432;-53
2021/01/30 12:55:09;;;;;;;6.65;2.80;;;32.00;36.70;;;;;;5034395;28;20025;-53
2021/01/30 12:57:35;;;;;;;13.30;9.85;;;32.40;36.20;;;;;;5052512;28;20078;-54
2021/01/30 13:00:01;;;;;;;7.00;6.32;;;32.70;35.60;;;;;;5052609;28;20116;-53
2021/01/30 13:02:27;;;;;;;11.63;10.20;;;33.10;34.80;;;;;;5051134;28;20040;-54
2021/01/30 13:04:53;;;;;;;9.23;6.57;;;33.40;34.00;;;;;;5052456;28;20024;-53
2021/01/30 13:07:19;;;;;;;13.65;7.07;;;33.60;33.40;;;;;;5052025;28;20071;-54
2021/01/30 13:09:45;;;;;;;8.07;6.10;;;33.70;33.10;;;;;;5052029;28;20044;-54
2021/01/30 13:12:11;;;;;;;8.88;5.50;;;33.70;33.00;;;;;;5032877;28;20033;-54
2021/01/30 13:14:41;;;;;;;9.45;6.03;;;33.50;33.00;;;;;;5051490;28;20386;-54
2021/01/30 13:17:07;;;;;;;6.47;5.40;;;33.40;33.00;;;;;;5050151;28;20031;-55
2021/01/30 13:19:35;;;;;;;7.28;5.10;;;33.20;33.40;;;;;;5050187;28;20501;-55